createdAt,value
2023-02-19T00:00:44.773Z,7.62
2023-02-19T00:03:15.489Z,8.05
2023-02-19T00:05:45.880Z,9.98
2023-02-19T00:08:15.527Z,8.28
2023-02-19T00:10:45.688Z,9.53
2023-02-19T00:13:16.103Z,9.83
2023-02-19T00:15:45.572Z,8.70
2023-02-19T00:18:16.152Z,8.87
2023-02-19T00:20:45.518Z,8.68
2023-02-19T00:23:15.817Z,8.05
2023-02-19T00:28:14.713Z,8.18
2023-02-19T00:30:45.670Z,8.10
2023-02-19T00:33:16.798Z,8.10
2023-02-19T00:35:46.094Z,6.65
2023-02-19T00:38:17.141Z,7.60
2023-02-19T00:40:46.476Z,7.83
2023-02-19T00:43:17.610Z,8.03
2023-02-19T00:45:47.096Z,8.53
2023-02-19T00:48:16.590Z,7.23
2023-02-19T00:50:47.049Z,8.20
2023-02-19T00:53:16.428Z,8.10
2023-02-19T00:55:46.721Z,10.23
2023-02-19T01:00:44.735Z,7.83
2023-02-19T01:03:14.104Z,8.38
2023-02-19T01:05:45.204Z,7.58
2023-02-19T01:08:14.503Z,8.00
2023-02-19T01:10:45.759Z,8.30
2023-02-19T01:13:16.660Z,7.42
2023-02-19T01:15:46.406Z,7.35
2023-02-19T01:18:16.042Z,8.18
2023-02-19T01:20:47.310Z,9.25
2023-02-19T01:23:16.722Z,6.50
2023-02-19T01:25:47.173Z,8.23
2023-02-19T01:28:17.532Z,6.35
2023-02-19T01:33:15.928Z,6.78
2023-02-19T01:35:45.230Z,7.28
2023-02-19T01:38:16.514Z,7.78
2023-02-19T01:40:50.427Z,8.45
2023-02-19T01:43:21.190Z,5.95
2023-02-19T01:45:50.824Z,6.42
2023-02-19T01:48:46.090Z,6.22
2023-02-19T01:51:19.596Z,7.03
2023-02-19T01:53:57.311Z,6.35
2023-02-19T01:56:30.078Z,6.72
2023-02-19T01:59:03.150Z,6.70
2023-02-19T02:01:33.659Z,6.45
2023-02-19T02:04:03.151Z,6.67
2023-02-19T02:06:43.072Z,7.03
2023-02-19T02:12:27.185Z,7.12
2023-02-19T02:14:57.874Z,7.33
2023-02-19T02:17:48.509Z,6.00
2023-02-19T02:27:07.707Z,5.72
2023-02-19T02:33:50.450Z,6.17
2023-02-19T02:40:14.291Z,6.53
2023-02-19T02:42:46.044Z,6.37
2023-02-19T02:48:19.322Z,7.00
2023-02-19T02:51:10.938Z,7.53
2023-02-19T02:59:59.118Z,7.58
2023-02-19T03:02:32.887Z,9.98
2023-02-19T03:05:25.150Z,7.40
2023-02-19T03:21:16.109Z,9.18
2023-02-19T03:24:05.410Z,6.75
2023-02-19T03:26:35.478Z,7.53
2023-02-19T03:29:27.229Z,6.65
2023-02-19T03:32:08.278Z,7.85
2023-02-19T03:34:44.981Z,8.63
2023-02-19T03:37:25.177Z,7.60
2023-02-19T03:39:56.140Z,7.70
2023-02-19T03:42:44.277Z,8.65
2023-02-19T03:45:30.106Z,7.58
2023-02-19T03:48:13.230Z,7.78
2023-02-19T03:51:17.082Z,8.13
2023-02-19T03:54:09.080Z,6.60
2023-02-19T03:57:17.425Z,8.10
2023-02-19T04:00:03.069Z,9.03
2023-02-19T04:03:00.970Z,8.95
2023-02-19T04:05:37.423Z,9.18
2023-02-19T04:08:09.860Z,9.63
2023-02-19T04:10:41.632Z,7.90
2023-02-19T04:13:14.083Z,9.55
2023-02-19T04:15:49.837Z,8.15
2023-02-19T04:18:35.052Z,7.45
2023-02-19T04:21:06.807Z,8.55
2023-02-19T04:23:46.830Z,8.70
2023-02-19T04:26:20.185Z,7.55
2023-02-19T04:28:50.841Z,7.25
2023-02-19T04:31:20.366Z,7.60
2023-02-19T04:33:49.850Z,8.25
2023-02-19T04:36:19.247Z,7.67
2023-02-19T04:38:48.616Z,7.73
2023-02-19T04:41:30.328Z,9.03
2023-02-19T04:44:00.518Z,8.60
2023-02-19T04:46:31.215Z,7.50
2023-02-19T04:49:00.630Z,8.18
2023-02-19T04:51:31.107Z,7.77
2023-02-19T04:54:00.468Z,8.38
2023-02-19T04:56:29.777Z,7.80
2023-02-19T04:58:59.869Z,8.50
2023-02-19T05:01:29.887Z,8.55
2023-02-19T05:04:00.699Z,8.60
2023-02-19T05:06:30.021Z,7.90
2023-02-19T05:08:59.451Z,8.18
2023-02-19T05:11:28.965Z,7.97
2023-02-19T05:13:58.710Z,8.38
2023-02-19T05:16:29.425Z,9.20
2023-02-19T05:19:00.845Z,7.28
2023-02-19T05:21:31.607Z,7.53
2023-02-19T05:24:01.016Z,7.65
2023-02-19T05:26:32.096Z,8.68
2023-02-19T05:29:02.644Z,7.72
2023-02-19T05:31:33.809Z,7.37
2023-02-19T05:34:05.114Z,6.90
2023-02-19T05:36:37.065Z,8.13
2023-02-19T05:39:07.355Z,6.62
2023-02-19T05:41:38.904Z,7.50
2023-02-19T05:44:08.443Z,7.05
2023-02-19T05:46:39.289Z,7.83
2023-02-19T05:49:10.188Z,6.28
2023-02-19T05:51:39.575Z,6.78
2023-02-19T05:54:11.588Z,10.63
2023-02-19T05:56:43.596Z,6.78
2023-02-19T05:59:19.068Z,5.35
2023-02-19T06:01:50.203Z,6.33
2023-02-19T06:04:24.008Z,4.67
2023-02-19T06:06:53.297Z,6.25
2023-02-19T06:09:22.730Z,4.85
2023-02-19T06:11:53.556Z,3.20
2023-02-19T06:14:22.996Z,3.85
2023-02-19T06:16:52.290Z,3.03
2023-02-19T06:19:21.673Z,3.42
2023-02-19T06:21:52.473Z,2.70
2023-02-19T06:24:23.071Z,3.42
2023-02-19T06:26:53.047Z,3.10
2023-02-19T06:29:22.480Z,3.35
2023-02-19T06:31:51.925Z,2.47
2023-02-19T06:34:21.358Z,3.03
2023-02-19T06:36:51.760Z,4.15
2023-02-19T06:39:21.245Z,2.37
2023-02-19T06:41:51.606Z,3.07
2023-02-19T06:44:21.235Z,2.20
2023-02-19T06:46:50.791Z,2.72
2023-02-19T06:49:20.134Z,3.17
2023-02-19T06:51:50.609Z,2.80
2023-02-19T06:57:20.713Z,3.22
2023-02-19T06:59:51.350Z,2.85
2023-02-19T07:02:20.764Z,3.40
2023-02-19T07:04:51.538Z,3.33
2023-02-19T07:07:21.787Z,3.08
2023-02-19T07:09:52.332Z,3.17
2023-02-19T07:12:23.304Z,2.45
2023-02-19T07:14:53.573Z,2.12
2023-02-19T07:17:24.307Z,2.67
2023-02-19T07:19:54.627Z,2.47
2023-02-19T07:24:52.509Z,3.83
2023-02-19T07:27:21.829Z,2.85
2023-02-19T07:29:51.138Z,3.10
2023-02-19T07:32:20.602Z,3.37
2023-02-19T07:34:51.126Z,4.30
2023-02-19T07:37:20.661Z,2.33
2023-02-19T07:39:51.121Z,2.43
2023-02-19T07:42:20.571Z,3.42
2023-02-19T07:44:49.872Z,3.07
2023-02-19T07:47:19.270Z,3.02
2023-02-19T07:49:48.568Z,2.67
2023-02-19T07:52:19.629Z,3.25
2023-02-19T07:54:50.013Z,3.08
2023-02-19T07:57:19.430Z,3.47
2023-02-19T07:59:49.868Z,3.10
2023-02-19T08:05:15.583Z,3.77
2023-02-19T08:07:46.097Z,3.37
2023-02-19T08:13:31.292Z,2.22
2023-02-19T08:19:18.584Z,3.25
2023-02-19T08:21:51.339Z,3.98
2023-02-19T08:24:22.406Z,2.62
2023-02-19T08:26:51.997Z,3.42
2023-02-19T08:29:22.924Z,3.83
2023-02-19T08:31:52.310Z,3.12
2023-02-19T08:34:21.624Z,3.20
2023-02-19T08:36:51.054Z,2.52
2023-02-19T08:39:21.191Z,3.33
2023-02-19T08:44:20.287Z,3.20
2023-02-19T08:46:49.662Z,3.33
2023-02-19T08:49:19.036Z,3.43
2023-02-19T08:51:48.355Z,2.27
2023-02-19T08:54:17.793Z,1.97
2023-02-19T08:56:47.154Z,3.60
2023-02-19T08:59:20.213Z,3.03
2023-02-19T09:01:49.562Z,3.45
2023-02-19T09:04:18.922Z,2.67
2023-02-19T09:06:48.242Z,3.33
2023-02-19T09:09:17.705Z,1.98
2023-02-19T09:11:49.294Z,2.17
2023-02-19T09:14:19.847Z,2.72
2023-02-19T09:16:49.343Z,3.45
2023-02-19T09:19:18.655Z,4.67
2023-02-19T09:21:48.071Z,3.70
2023-02-19T09:24:17.481Z,3.77
2023-02-19T09:26:48.433Z,2.27
2023-02-19T09:29:18.167Z,2.42
2023-02-19T09:31:47.952Z,4.50
2023-02-19T09:34:17.293Z,3.50
2023-02-19T09:36:49.886Z,3.67
2023-02-19T09:39:20.440Z,4.17
2023-02-19T09:41:52.877Z,2.40
2023-02-19T09:44:33.534Z,2.77
2023-02-19T09:47:05.310Z,2.80
2023-02-19T09:49:41.175Z,3.12
2023-02-19T09:52:16.706Z,2.80
2023-02-19T09:54:48.028Z,3.40
2023-02-19T09:57:20.418Z,2.52
2023-02-19T10:00:03.279Z,3.15
2023-02-19T10:02:35.319Z,2.40
2023-02-19T10:05:06.550Z,2.22
2023-02-19T10:07:50.668Z,2.42
2023-02-19T10:10:31.892Z,2.00
2023-02-19T10:13:04.317Z,2.15
2023-02-19T10:15:39.454Z,1.92
2023-02-19T10:18:11.302Z,2.47
2023-02-19T10:20:41.365Z,1.92
2023-02-19T10:23:14.158Z,1.45
2023-02-19T10:25:46.604Z,1.70
2023-02-19T10:28:22.794Z,2.22
2023-02-19T10:30:57.936Z,1.95
2023-02-19T10:33:31.160Z,3.08
2023-02-19T10:36:06.595Z,3.02
2023-02-19T10:38:41.498Z,1.25
2023-02-19T10:41:18.423Z,2.25
2023-02-19T10:44:23.151Z,1.85
2023-02-19T10:46:58.766Z,2.52
2023-02-19T10:49:38.357Z,1.67
2023-02-19T10:52:22.804Z,1.80
2023-02-19T10:54:55.061Z,1.55
2023-02-19T10:57:29.487Z,2.02
2023-02-19T11:00:17.396Z,2.60
2023-02-19T11:02:47.001Z,2.08
2023-02-19T11:05:19.990Z,1.25
2023-02-19T11:07:56.771Z,1.87
2023-02-19T11:10:34.870Z,1.40
2023-02-19T11:13:08.840Z,1.67
2023-02-19T11:15:38.782Z,1.05
2023-02-19T11:18:17.128Z,1.82
2023-02-19T11:20:54.734Z,1.65
2023-02-19T11:23:42.168Z,1.62
2023-02-19T11:26:23.617Z,1.85
2023-02-19T11:29:04.897Z,1.98
2023-02-19T11:31:35.982Z,1.47
2023-02-19T11:34:18.869Z,1.57
2023-02-19T11:36:56.093Z,1.70
2023-02-19T11:39:31.468Z,1.92
2023-02-19T11:42:16.926Z,1.15
2023-02-19T11:44:52.419Z,1.57
2023-02-19T11:47:27.816Z,2.45
2023-02-19T11:50:03.157Z,2.42
2023-02-19T11:53:05.435Z,1.57
2023-02-19T11:55:49.691Z,1.85
2023-02-19T11:58:53.311Z,1.30
2023-02-19T12:01:37.707Z,1.05
2023-02-19T12:04:47.327Z,1.45
2023-02-19T12:07:38.306Z,1.47
2023-02-19T12:10:37.814Z,1.40
2023-02-19T12:13:14.486Z,3.60
2023-02-19T12:16:03.549Z,1.40
2023-02-19T12:18:36.079Z,1.75
2023-02-19T12:21:27.986Z,1.27
2023-02-19T12:24:10.266Z,1.62
2023-02-19T12:26:54.446Z,2.10
2023-02-19T12:29:35.933Z,1.52
2023-02-19T12:32:13.651Z,1.10
2023-02-19T12:34:54.816Z,1.20
2023-02-19T12:37:42.205Z,1.10
2023-02-19T12:40:20.790Z,1.20
2023-02-19T12:43:19.828Z,1.30
2023-02-19T12:45:58.960Z,1.00
2023-02-19T12:48:34.393Z,1.30
2023-02-19T12:51:09.824Z,1.07
2023-02-19T12:53:43.218Z,1.85
2023-02-19T12:56:16.104Z,1.40
2023-02-19T12:58:53.121Z,1.72
2023-02-19T13:01:28.672Z,1.27
2023-02-19T13:04:18.223Z,2.95
2023-02-19T13:07:03.895Z,2.17
2023-02-19T13:10:01.140Z,1.85
2023-02-19T13:12:36.652Z,1.65
2023-02-19T13:15:20.734Z,1.57
2023-02-19T13:17:53.364Z,2.20
2023-02-19T13:20:37.724Z,1.32
2023-02-19T13:23:49.569Z,2.45
2023-02-19T13:26:56.686Z,1.90
2023-02-19T13:29:56.869Z,1.35
2023-02-19T13:32:38.694Z,1.60
2023-02-19T13:35:32.222Z,3.02
2023-02-19T13:38:03.893Z,2.72
2023-02-19T13:40:36.018Z,1.77
2023-02-19T13:43:11.136Z,2.85
2023-02-19T13:45:47.626Z,1.70
2023-02-19T13:48:28.799Z,3.62
2023-02-19T13:51:24.304Z,2.45
2023-02-19T13:53:59.550Z,2.20
2023-02-19T13:56:34.825Z,2.12
2023-02-19T13:59:28.276Z,1.57
2023-02-19T14:02:00.655Z,1.80
2023-02-19T14:04:49.818Z,2.52
2023-02-19T14:07:22.430Z,1.80
2023-02-19T14:09:51.954Z,2.35
2023-02-19T14:12:24.941Z,1.63
2023-02-19T14:14:56.014Z,2.75
2023-02-19T14:17:40.473Z,3.80
2023-02-19T14:20:37.260Z,1.62
2023-02-19T14:23:20.040Z,1.35
2023-02-19T14:25:58.495Z,1.75
2023-02-19T14:28:32.843Z,3.62
2023-02-19T14:31:18.079Z,1.35
2023-02-19T14:33:50.929Z,1.47
2023-02-19T14:36:50.258Z,1.57
2023-02-19T14:39:31.458Z,1.50
2023-02-19T14:42:20.594Z,1.05
2023-02-19T14:44:52.931Z,1.50
2023-02-19T14:47:27.929Z,1.65
2023-02-19T14:50:01.884Z,0.65
2023-02-19T14:52:39.611Z,1.80
2023-02-19T14:55:42.364Z,1.10
2023-02-19T14:58:41.795Z,1.50
2023-02-19T15:01:36.758Z,0.98
2023-02-19T15:04:09.338Z,1.07
2023-02-19T15:06:38.715Z,1.62
2023-02-19T15:09:09.301Z,1.40
2023-02-19T15:11:41.682Z,1.87
2023-02-19T15:14:15.010Z,1.05
2023-02-19T15:16:44.438Z,1.40
2023-02-19T15:19:16.928Z,1.67
2023-02-19T15:21:50.251Z,2.25
2023-02-19T15:24:20.583Z,1.57
2023-02-19T15:29:24.374Z,1.00
2023-02-19T15:31:56.557Z,1.40
2023-02-19T15:37:06.031Z,1.47
2023-02-19T15:39:38.412Z,1.50
2023-02-19T15:42:12.050Z,1.50
2023-02-19T15:44:59.523Z,2.90
2023-02-19T15:47:44.622Z,3.17
2023-02-19T15:50:17.335Z,3.22
2023-02-19T15:52:53.032Z,2.35
2023-02-19T15:55:43.463Z,2.02
2023-02-19T16:03:42.673Z,3.08
2023-02-19T16:08:46.426Z,2.15
2023-02-19T16:11:24.905Z,2.52
2023-02-19T16:13:56.708Z,2.12
2023-02-19T16:16:34.885Z,2.12
2023-02-19T16:19:05.223Z,2.95
2023-02-19T16:21:34.845Z,2.65
2023-02-19T16:24:24.263Z,2.40
2023-02-19T16:26:53.972Z,2.87
2023-02-19T16:29:26.399Z,2.85
2023-02-19T16:32:09.658Z,1.70
2023-02-19T16:34:42.146Z,2.33
2023-02-19T16:37:32.998Z,2.80
2023-02-19T16:40:16.787Z,2.22
2023-02-19T16:42:51.983Z,2.15
2023-02-19T16:45:21.682Z,1.95
2023-02-19T16:47:52.351Z,2.20
2023-02-19T16:50:25.065Z,1.90
2023-02-19T16:52:59.664Z,1.98
2023-02-19T16:55:32.428Z,2.12
2023-02-19T16:58:02.332Z,2.12
2023-02-19T17:00:32.749Z,1.40
2023-02-19T17:03:06.954Z,1.40
2023-02-19T17:05:37.480Z,2.00
2023-02-19T17:08:11.171Z,2.08
2023-02-19T17:10:40.539Z,1.70
2023-02-19T17:13:10.103Z,1.67
2023-02-19T17:15:40.890Z,1.57
2023-02-19T17:18:13.769Z,1.70
2023-02-19T17:20:45.202Z,1.95
2023-02-19T17:23:16.805Z,19.42
2023-02-19T17:25:47.706Z,29.82
2023-02-19T17:28:17.204Z,25.60
2023-02-19T17:30:46.589Z,20.23
2023-02-19T17:33:17.209Z,18.53
2023-02-19T17:35:47.772Z,15.28
2023-02-19T17:38:17.237Z,12.00
2023-02-19T17:40:48.142Z,10.13
2023-02-19T17:43:17.702Z,7.65
2023-02-19T17:45:47.437Z,5.17
2023-02-19T17:48:17.088Z,5.10
2023-02-19T17:50:48.021Z,5.15
2023-02-19T17:53:18.974Z,5.00
2023-02-19T17:55:49.575Z,4.50
2023-02-19T17:58:21.999Z,4.45
2023-02-19T18:00:51.402Z,5.00
2023-02-19T18:03:58.319Z,4.27
2023-02-19T18:09:43.477Z,4.35
2023-02-19T18:12:12.820Z,3.52
2023-02-19T18:14:42.169Z,3.17
2023-02-19T18:17:17.461Z,3.10
2023-02-19T18:23:20.625Z,2.05
2023-02-19T18:25:49.982Z,2.47
2023-02-19T18:28:20.710Z,1.97
2023-02-19T18:31:35.841Z,2.20
2023-02-19T18:34:42.409Z,2.37
2023-02-19T18:37:11.965Z,2.52
2023-02-19T18:39:41.295Z,2.17
2023-02-19T18:42:11.179Z,2.10
2023-02-19T18:44:40.629Z,1.65
2023-02-19T18:47:11.516Z,1.90
2023-02-19T18:49:41.012Z,1.75
2023-02-19T18:52:10.385Z,1.87
2023-02-19T18:54:39.804Z,2.53
2023-02-19T18:57:09.357Z,1.70
2023-02-19T18:59:41.821Z,2.00
2023-02-19T19:02:12.137Z,1.92
2023-02-19T19:07:11.564Z,2.95
2023-02-19T19:09:42.825Z,2.60
2023-02-19T19:12:12.363Z,3.37
2023-02-19T19:14:42.074Z,3.15
2023-02-19T19:17:11.459Z,3.12
2023-02-19T19:19:42.532Z,3.00
2023-02-19T19:22:12.421Z,3.42
2023-02-19T19:24:41.821Z,3.20
2023-02-19T19:27:11.257Z,3.75
2023-02-19T19:29:41.099Z,2.40
2023-02-19T19:32:10.915Z,2.25
2023-02-19T19:34:40.451Z,1.80
2023-02-19T19:37:10.580Z,3.20
2023-02-19T19:39:40.014Z,2.75
2023-02-19T19:42:09.946Z,2.27
2023-02-19T19:44:39.269Z,2.55
2023-02-19T19:47:08.656Z,2.13
2023-02-19T19:49:38.229Z,2.50
2023-02-19T19:52:08.354Z,3.40
2023-02-19T19:54:37.781Z,3.17
2023-02-19T19:57:07.165Z,2.57
2023-02-19T19:59:38.315Z,2.60
2023-02-19T20:02:08.721Z,4.30
2023-02-19T20:04:38.109Z,2.58
2023-02-19T20:07:07.444Z,2.87
2023-02-19T20:09:36.846Z,3.80
2023-02-19T20:12:06.606Z,2.70
2023-02-19T20:14:35.992Z,2.62
2023-02-19T20:17:06.021Z,2.17
2023-02-19T20:19:35.388Z,3.72
2023-02-19T20:22:05.151Z,3.17
2023-02-19T20:24:34.485Z,2.67
2023-02-19T20:27:04.138Z,2.70
2023-02-19T20:29:35.109Z,2.47
2023-02-19T20:32:04.708Z,2.92
2023-02-19T20:34:34.117Z,3.45
2023-02-19T20:37:22.886Z,4.07
2023-02-19T20:39:52.437Z,3.25
2023-02-19T20:42:21.889Z,2.20
2023-02-19T20:44:51.421Z,2.83
2023-02-19T20:47:20.839Z,2.75
2023-02-19T20:49:51.772Z,1.97
2023-02-19T20:52:21.776Z,2.25
2023-02-19T20:54:52.696Z,2.92
2023-02-19T20:57:22.322Z,2.00
2023-02-19T20:59:51.698Z,2.30
2023-02-19T21:02:24.553Z,2.27
2023-02-19T21:04:54.055Z,2.17
2023-02-19T21:07:24.283Z,3.23
2023-02-19T21:12:23.413Z,3.42
2023-02-19T21:14:53.018Z,2.65
2023-02-19T21:17:22.316Z,3.30
2023-02-19T21:19:51.839Z,3.47
2023-02-19T21:22:21.441Z,1.90
2023-02-19T21:24:53.719Z,2.98
2023-02-19T21:27:23.063Z,2.27
2023-02-19T21:29:52.495Z,2.93
2023-02-19T21:32:21.998Z,2.00
2023-02-19T21:34:51.439Z,2.40
2023-02-19T21:37:20.784Z,2.63
2023-02-19T21:39:50.745Z,2.92
2023-02-19T21:42:20.293Z,2.15
2023-02-19T21:44:49.653Z,1.93
2023-02-19T21:47:19.037Z,2.80
2023-02-19T21:49:48.411Z,1.30
2023-02-19T21:52:17.725Z,2.33
2023-02-19T21:54:47.133Z,2.03
2023-02-19T21:57:16.454Z,2.77
2023-02-19T21:59:46.269Z,2.22
2023-02-19T22:02:17.439Z,1.85
2023-02-19T22:04:47.637Z,1.98
2023-02-19T22:07:17.026Z,3.10
2023-02-19T22:09:46.527Z,1.90
2023-02-19T22:12:16.413Z,1.70
2023-02-19T22:14:46.077Z,1.85
2023-02-19T22:17:15.764Z,1.85
2023-02-19T22:19:45.081Z,2.15
2023-02-19T22:22:14.576Z,2.10
2023-02-19T22:24:43.877Z,1.37
2023-02-19T22:27:13.384Z,2.08
2023-02-19T22:29:43.389Z,1.77
2023-02-19T22:32:19.576Z,1.87
2023-02-19T22:34:49.574Z,2.22
2023-02-19T22:37:19.596Z,2.87
2023-02-19T22:39:49.693Z,2.10
2023-02-19T22:42:19.925Z,2.27
2023-02-19T22:47:22.216Z,1.95
2023-02-19T22:49:53.458Z,1.70
2023-02-19T22:52:27.548Z,2.62
2023-02-19T22:54:57.717Z,3.55
2023-02-19T22:57:28.244Z,2.40
2023-02-19T23:02:26.334Z,2.00
2023-02-19T23:04:55.719Z,2.73
2023-02-19T23:07:25.406Z,2.53
2023-02-19T23:09:54.676Z,2.08
2023-02-19T23:12:24.118Z,2.77
2023-02-19T23:14:53.588Z,3.07
2023-02-19T23:17:23.036Z,2.07
2023-02-19T23:19:52.491Z,2.57
2023-02-19T23:22:21.960Z,3.17
2023-02-19T23:24:51.392Z,2.43
2023-02-19T23:27:22.851Z,2.75
2023-02-19T23:29:52.224Z,2.30
2023-02-19T23:32:23.825Z,2.27
2023-02-19T23:34:53.109Z,2.60
2023-02-19T23:37:22.588Z,2.47
2023-02-19T23:39:51.962Z,3.65
2023-02-19T23:42:21.456Z,2.60
2023-02-19T23:44:50.831Z,2.52
2023-02-19T23:47:21.838Z,2.30
2023-02-19T23:49:51.222Z,3.83
2023-02-19T23:52:20.589Z,2.60
2023-02-19T23:54:49.916Z,2.47
2023-02-19T23:57:19.427Z,2.30
2023-02-19T23:59:49.300Z,2.95
